createdAt,value
2022-12-19T00:01:54.752Z,7.47
2022-12-19T00:04:21.992Z,6.57
2022-12-19T00:06:49.057Z,6.87
2022-12-19T00:09:16.151Z,9.37
2022-12-19T00:11:43.426Z,8.60
2022-12-19T00:14:11.871Z,8.37
2022-12-19T00:16:39.030Z,7.90
2022-12-19T00:19:06.684Z,8.87
2022-12-19T00:21:35.468Z,9.70
2022-12-19T00:24:14.523Z,11.17
2022-12-19T00:26:48.519Z,8.83
2022-12-19T00:29:16.308Z,9.93
2022-12-19T00:31:43.598Z,8.77
2022-12-19T00:34:10.923Z,8.33
2022-12-19T00:36:38.130Z,10.67
2022-12-19T00:39:08.478Z,9.87
2022-12-19T00:41:41.674Z,8.90
2022-12-19T00:44:17.220Z,8.20
2022-12-19T00:46:44.655Z,8.80
2022-12-19T00:49:19.874Z,8.60
2022-12-19T00:51:46.956Z,8.30
2022-12-19T00:54:14.109Z,8.77
2022-12-19T00:56:42.380Z,8.17
2022-12-19T00:59:10.781Z,7.17
2022-12-19T01:01:41.514Z,7.07
2022-12-19T01:04:30.699Z,8.00
2022-12-19T01:07:02.407Z,8.47
2022-12-19T01:09:31.078Z,7.07
2022-12-19T01:12:17.123Z,7.27
2022-12-19T01:14:44.416Z,8.20
2022-12-19T01:17:11.954Z,8.30
2022-12-19T01:19:44.066Z,7.47
2022-12-19T01:22:13.488Z,7.07
2022-12-19T01:24:41.513Z,6.40
2022-12-19T01:27:08.978Z,9.03
2022-12-19T01:29:38.886Z,8.77
2022-12-19T01:32:19.299Z,8.30
2022-12-19T01:34:46.418Z,8.63
2022-12-19T01:37:13.438Z,10.23
2022-12-19T01:39:40.548Z,10.00
2022-12-19T01:42:22.992Z,8.90
2022-12-19T01:45:05.711Z,7.97
2022-12-19T01:47:46.999Z,8.13
2022-12-19T01:50:39.586Z,8.33
2022-12-19T01:53:12.689Z,7.90
2022-12-19T01:55:41.456Z,8.43
2022-12-19T01:58:13.091Z,9.20
2022-12-19T02:00:43.587Z,11.00
2022-12-19T02:03:31.520Z,7.97
2022-12-19T02:06:00.262Z,8.53
2022-12-19T02:08:29.614Z,8.20
2022-12-19T02:10:58.486Z,9.07
2022-12-19T02:13:25.734Z,7.70
2022-12-19T02:16:24.330Z,8.30
2022-12-19T02:19:04.994Z,8.30
2022-12-19T02:21:54.589Z,9.00
2022-12-19T02:24:31.097Z,7.00
2022-12-19T02:27:40.221Z,9.27
2022-12-19T02:30:14.583Z,9.40
2022-12-19T02:33:17.558Z,10.00
2022-12-19T02:35:54.161Z,9.02
2022-12-19T02:38:50.494Z,11.43
2022-12-19T02:41:43.450Z,12.90
2022-12-19T02:46:54.598Z,10.52
2022-12-19T02:49:26.589Z,9.43
2022-12-19T02:51:58.424Z,8.90
2022-12-19T02:54:25.850Z,10.30
2022-12-19T02:57:04.576Z,14.40
2022-12-19T03:00:05.496Z,11.77
2022-12-19T03:02:55.993Z,11.87
2022-12-19T03:06:22.790Z,9.90
2022-12-19T03:08:58.823Z,10.47
2022-12-19T03:11:32.481Z,8.33
2022-12-19T03:14:21.218Z,10.10
2022-12-19T03:16:48.470Z,7.70
2022-12-19T03:19:16.942Z,7.03
2022-12-19T03:21:50.584Z,8.57
2022-12-19T03:24:19.104Z,9.20
2022-12-19T03:27:01.399Z,8.73
2022-12-19T03:29:49.696Z,9.00
2022-12-19T03:32:19.532Z,10.07
2022-12-19T03:34:53.982Z,10.93
2022-12-19T03:37:25.002Z,10.17
2022-12-19T03:39:57.692Z,6.77
2022-12-19T03:42:46.731Z,9.30
2022-12-19T03:45:21.639Z,8.93
2022-12-19T03:47:54.785Z,6.37
2022-12-19T03:50:26.018Z,8.23
2022-12-19T03:53:18.409Z,7.30
2022-12-19T03:55:56.194Z,11.07
2022-12-19T03:58:33.084Z,11.80
2022-12-19T04:01:02.269Z,10.50
2022-12-19T04:03:31.274Z,6.63
2022-12-19T04:06:01.120Z,12.00
2022-12-19T04:08:30.675Z,7.60
2022-12-19T04:11:20.149Z,6.87
2022-12-19T04:13:56.417Z,8.37
2022-12-19T04:16:34.987Z,8.47
2022-12-19T04:19:45.071Z,9.73
2022-12-19T04:22:34.310Z,6.13
2022-12-19T04:25:03.270Z,10.37
2022-12-19T04:27:34.260Z,6.63
2022-12-19T04:30:02.458Z,6.13
2022-12-19T04:32:35.318Z,9.13
2022-12-19T04:35:02.781Z,8.30
2022-12-19T04:37:32.291Z,10.40
2022-12-19T04:39:59.845Z,8.60
2022-12-19T04:42:26.920Z,7.50
2022-12-19T04:44:54.443Z,9.37
2022-12-19T04:47:21.525Z,8.43
2022-12-19T04:49:48.566Z,9.43
2022-12-19T04:52:16.195Z,9.83
2022-12-19T04:54:43.375Z,10.17
2022-12-19T04:57:10.520Z,10.60
2022-12-19T04:59:37.631Z,8.30
2022-12-19T05:02:07.767Z,8.70
2022-12-19T05:04:35.138Z,11.90
2022-12-19T05:07:02.236Z,9.23
2022-12-19T05:09:29.393Z,8.53
2022-12-19T05:11:56.569Z,8.17
2022-12-19T05:14:23.862Z,8.37
2022-12-19T05:16:52.901Z,9.57
2022-12-19T05:19:23.148Z,6.25
2022-12-19T05:21:50.206Z,8.43
2022-12-19T05:24:17.350Z,8.13
2022-12-19T05:26:44.433Z,9.67
2022-12-19T05:29:11.687Z,5.77
2022-12-19T05:31:38.925Z,9.17
2022-12-19T05:34:06.083Z,10.57
2022-12-19T05:36:33.493Z,12.20
2022-12-19T05:39:00.679Z,8.07
2022-12-19T05:41:27.916Z,8.97
2022-12-19T05:43:56.486Z,9.83
2022-12-19T05:46:25.335Z,9.00
2022-12-19T05:48:52.555Z,9.23
2022-12-19T05:51:20.122Z,9.23
2022-12-19T05:53:47.535Z,8.83
2022-12-19T05:56:20.695Z,8.80
2022-12-19T05:58:48.544Z,9.03
2022-12-19T06:01:17.291Z,7.47
2022-12-19T06:03:45.130Z,7.57
2022-12-19T06:06:17.790Z,5.83
2022-12-19T06:11:13.978Z,9.97
2022-12-19T06:13:41.836Z,8.97
2022-12-19T06:16:13.142Z,9.37
2022-12-19T06:18:44.832Z,10.70
2022-12-19T06:21:18.390Z,7.22
2022-12-19T06:23:46.468Z,10.13
2022-12-19T06:26:19.633Z,10.63
2022-12-19T06:28:49.241Z,11.23
2022-12-19T06:31:17.821Z,10.60
2022-12-19T06:33:45.283Z,9.30
2022-12-19T06:36:18.223Z,9.63
2022-12-19T06:38:45.441Z,11.67
2022-12-19T06:41:31.123Z,12.20
2022-12-19T06:43:59.579Z,9.67
2022-12-19T06:46:26.811Z,10.33
2022-12-19T06:48:53.958Z,7.77
2022-12-19T06:51:21.627Z,9.50
2022-12-19T06:53:49.366Z,10.40
2022-12-19T06:56:17.225Z,12.83
2022-12-19T06:58:44.854Z,12.27
2022-12-19T07:01:40.939Z,7.93
2022-12-19T07:04:11.377Z,7.50
2022-12-19T07:06:39.238Z,8.87
2022-12-19T07:09:06.661Z,10.87
2022-12-19T07:11:33.820Z,9.17
2022-12-19T07:14:00.904Z,7.87
2022-12-19T07:16:28.288Z,8.90
2022-12-19T07:18:55.574Z,11.10
2022-12-19T07:21:22.846Z,11.83
2022-12-19T07:23:49.950Z,8.27
2022-12-19T07:26:17.360Z,11.13
2022-12-19T07:28:44.765Z,13.30
2022-12-19T07:31:12.023Z,10.60
2022-12-19T07:33:39.112Z,10.13
2022-12-19T07:36:06.336Z,10.83
2022-12-19T07:38:33.484Z,10.98
2022-12-19T07:41:03.929Z,11.83
2022-12-19T07:43:31.078Z,9.27
2022-12-19T07:45:58.292Z,9.87
2022-12-19T07:48:25.553Z,11.13
2022-12-19T07:50:52.766Z,9.35
2022-12-19T07:53:19.961Z,11.15
2022-12-19T07:55:51.993Z,11.02
2022-12-19T07:58:19.281Z,12.25
2022-12-19T08:00:46.409Z,11.95
2022-12-19T08:03:13.601Z,9.90
2022-12-19T08:05:40.676Z,12.93
2022-12-19T08:08:08.951Z,10.48
2022-12-19T08:10:36.205Z,10.30
2022-12-19T08:13:03.332Z,11.18
2022-12-19T08:15:31.305Z,9.27
2022-12-19T08:17:58.375Z,11.53
2022-12-19T08:20:25.504Z,12.10
2022-12-19T08:22:52.574Z,10.98
2022-12-19T08:25:19.791Z,12.95
2022-12-19T08:27:47.124Z,11.90
2022-12-19T08:30:14.935Z,12.32
2022-12-19T08:32:42.281Z,12.45
2022-12-19T08:35:09.601Z,10.75
2022-12-19T08:37:37.116Z,11.82
2022-12-19T08:40:04.734Z,12.55
2022-12-19T08:42:33.756Z,12.52
2022-12-19T08:45:01.050Z,13.88
2022-12-19T08:47:28.157Z,13.32
2022-12-19T08:49:55.208Z,16.02
2022-12-19T08:52:22.503Z,12.10
2022-12-19T08:54:49.650Z,10.95
2022-12-19T08:57:16.721Z,12.23
2022-12-19T08:59:43.753Z,9.63
2022-12-19T09:02:12.509Z,10.07
2022-12-19T09:06:00.116Z,10.70
2022-12-19T09:07:26.878Z,13.68
2022-12-19T09:09:53.986Z,11.95
2022-12-19T09:12:21.141Z,10.68
2022-12-19T09:14:48.608Z,10.60
2022-12-19T09:17:16.117Z,9.45
2022-12-19T09:19:47.436Z,11.60
2022-12-19T09:22:15.351Z,13.38
2022-12-19T09:24:42.455Z,10.60
2022-12-19T09:27:09.831Z,11.23
2022-12-19T09:29:37.129Z,13.68
2022-12-19T09:32:04.297Z,10.55
2022-12-19T09:34:37.123Z,11.15
2022-12-19T09:37:15.785Z,12.85
2022-12-19T09:39:43.641Z,12.15
2022-12-19T09:42:40.451Z,11.05
2022-12-19T09:45:31.939Z,9.90
2022-12-19T09:48:01.711Z,9.95
2022-12-19T09:50:54.620Z,13.15
2022-12-19T09:53:33.531Z,10.23
2022-12-19T09:56:02.949Z,10.40
2022-12-19T09:58:44.996Z,10.75
2022-12-19T10:01:44.591Z,12.43
2022-12-19T10:04:14.339Z,11.95
2022-12-19T10:07:20.504Z,10.38
2022-12-19T10:11:16.330Z,12.90
2022-12-19T10:12:50.772Z,12.68
2022-12-19T10:15:59.991Z,9.60
2022-12-19T10:18:30.912Z,8.65
2022-12-19T10:21:07.958Z,9.68
2022-12-19T10:24:11.893Z,12.63
2022-12-19T10:26:49.626Z,15.43
2022-12-19T10:29:58.989Z,14.27
2022-12-19T10:32:43.388Z,10.77
2022-12-19T10:35:15.860Z,11.23
2022-12-19T10:40:34.854Z,13.02
2022-12-19T10:43:33.954Z,11.13
2022-12-19T10:46:15.511Z,11.27
2022-12-19T10:48:42.759Z,12.05
2022-12-19T10:51:29.655Z,9.82
2022-12-19T10:53:58.921Z,11.68
2022-12-19T10:56:37.438Z,11.90
2022-12-19T10:59:16.648Z,13.18
2022-12-19T11:01:44.801Z,12.45
2022-12-19T11:04:33.449Z,12.02
2022-12-19T11:07:03.587Z,11.98
2022-12-19T11:09:32.240Z,12.88
2022-12-19T11:14:14.696Z,11.77
2022-12-19T11:21:10.553Z,10.52
2022-12-19T11:29:17.589Z,13.13
2022-12-19T11:29:31.261Z,13.82
2022-12-19T11:30:47.446Z,14.23
2022-12-19T11:30:47.997Z,12.40
2022-12-19T11:32:44.820Z,15.52
2022-12-19T11:35:20.979Z,14.55
2022-12-19T11:37:57.005Z,12.55
2022-12-19T11:40:44.954Z,14.57
2022-12-19T11:43:45.356Z,15.45
2022-12-19T11:46:26.794Z,12.80
2022-12-19T11:49:02.675Z,13.05
2022-12-19T11:51:51.168Z,12.73
2022-12-19T11:54:51.551Z,13.60
2022-12-19T11:57:19.815Z,12.80
2022-12-19T11:59:47.058Z,15.30
2022-12-19T12:02:29.648Z,13.50
2022-12-19T12:05:09.309Z,15.20
2022-12-19T12:08:20.031Z,12.07
2022-12-19T12:16:17.746Z,13.23
2022-12-19T12:22:43.461Z,17.65
2022-12-19T12:31:23.673Z,13.00
2022-12-19T12:31:27.718Z,13.85
2022-12-19T12:31:41.611Z,13.95
2022-12-19T12:31:51.156Z,12.57
2022-12-19T12:32:05.405Z,12.27
2022-12-19T12:35:56.480Z,14.20
2022-12-19T12:39:01.860Z,13.88
2022-12-19T12:42:05.924Z,14.38
2022-12-19T12:44:41.357Z,15.18
2022-12-19T12:47:26.850Z,13.80
2022-12-19T12:50:06.312Z,12.70
2022-12-19T12:52:38.216Z,12.10
2022-12-19T12:55:14.492Z,11.57
2022-12-19T12:57:41.616Z,15.25
2022-12-19T13:00:22.197Z,14.25
2022-12-19T13:03:04.709Z,11.93
2022-12-19T13:05:38.988Z,12.10
2022-12-19T13:08:30.892Z,13.68
2022-12-19T13:11:04.893Z,13.95
2022-12-19T13:13:55.058Z,14.27
2022-12-19T13:16:45.041Z,13.30
2022-12-19T13:19:28.750Z,13.80
2022-12-19T13:22:05.691Z,13.43
2022-12-19T13:24:54.279Z,11.55
2022-12-19T13:27:21.453Z,14.05
2022-12-19T13:30:00.568Z,11.13
2022-12-19T13:32:39.865Z,12.23
2022-12-19T13:36:21.597Z,14.63
2022-12-19T13:40:00.638Z,11.98
2022-12-19T13:41:48.692Z,11.00
2022-12-19T13:44:21.821Z,12.63
2022-12-19T13:46:49.831Z,12.50
2022-12-19T13:49:34.737Z,14.10
2022-12-19T13:52:03.999Z,13.48
2022-12-19T13:54:46.899Z,13.98
2022-12-19T13:57:29.790Z,13.30
2022-12-19T14:00:03.806Z,12.68
2022-12-19T14:02:44.065Z,15.50
2022-12-19T14:06:14.405Z,14.45
2022-12-19T14:08:23.770Z,15.00
2022-12-19T14:11:37.249Z,13.77
2022-12-19T14:14:17.800Z,15.25
2022-12-19T14:16:49.193Z,13.75
2022-12-19T14:19:25.017Z,13.93
2022-12-19T14:22:11.604Z,15.65
2022-12-19T14:24:41.304Z,16.13
2022-12-19T14:28:26.979Z,14.52
2022-12-19T14:30:32.196Z,13.70
2022-12-19T14:33:47.345Z,14.18
2022-12-19T14:36:10.008Z,14.43
2022-12-19T14:39:23.439Z,14.38
2022-12-19T14:41:48.869Z,15.43
2022-12-19T14:54:02.057Z,15.43
2022-12-19T14:54:06.174Z,17.05
2022-12-19T14:54:24.921Z,14.02
2022-12-19T14:54:34.716Z,16.02
2022-12-19T14:56:11.345Z,13.43
2022-12-19T14:58:55.312Z,15.75
2022-12-19T15:01:26.488Z,14.13
2022-12-19T15:04:53.320Z,13.70
2022-12-19T15:07:11.778Z,13.63
2022-12-19T15:11:08.247Z,13.70
2022-12-19T15:14:51.498Z,15.75
2022-12-19T15:16:30.522Z,14.13
2022-12-19T15:18:59.705Z,15.85
2022-12-19T15:21:28.243Z,17.33
2022-12-19T15:23:55.385Z,16.48
2022-12-19T15:26:35.325Z,15.63
2022-12-19T15:29:07.068Z,16.10
2022-12-19T15:31:44.601Z,17.40
2022-12-19T15:34:38.388Z,15.85
2022-12-19T15:37:11.424Z,12.98
2022-12-19T15:39:38.652Z,15.10
2022-12-19T15:42:11.477Z,12.70
2022-12-19T15:44:41.564Z,14.45
2022-12-19T15:47:25.927Z,15.85
2022-12-19T15:49:53.310Z,17.23
2022-12-19T15:52:22.072Z,15.07
2022-12-19T15:54:50.666Z,16.05
2022-12-19T15:57:56.637Z,16.17
2022-12-19T16:00:27.894Z,14.63
2022-12-19T16:03:23.710Z,13.98
2022-12-19T16:05:43.591Z,18.05
2022-12-19T16:08:17.632Z,17.48
2022-12-19T16:10:48.202Z,16.55
2022-12-19T16:13:21.231Z,16.60
2022-12-19T16:15:49.076Z,16.48
2022-12-19T16:18:17.266Z,15.98
2022-12-19T16:20:44.694Z,17.58
2022-12-19T16:23:12.837Z,14.27
2022-12-19T16:25:45.787Z,14.50
2022-12-19T16:30:45.092Z,15.32
2022-12-19T16:33:21.797Z,17.50
2022-12-19T16:36:06.495Z,37.35
2022-12-19T16:38:35.259Z,14.73
2022-12-19T16:41:02.857Z,13.65
2022-12-19T16:43:33.123Z,15.70
2022-12-19T16:46:01.722Z,15.55
2022-12-19T16:48:30.283Z,12.88
2022-12-19T16:51:00.831Z,13.07
2022-12-19T16:53:28.197Z,16.00
2022-12-19T16:55:56.991Z,12.77
2022-12-19T16:58:27.441Z,14.57
2022-12-19T17:00:56.007Z,12.85
2022-12-19T17:03:53.351Z,12.70
2022-12-19T17:06:22.376Z,12.65
2022-12-19T17:08:49.870Z,11.23
2022-12-19T17:11:21.252Z,13.32
2022-12-19T17:13:56.093Z,12.88
2022-12-19T17:16:23.410Z,12.45
2022-12-19T17:18:50.843Z,12.73
2022-12-19T17:21:21.518Z,11.05
2022-12-19T17:23:49.961Z,13.02
2022-12-19T17:26:18.256Z,12.85
2022-12-19T17:28:48.867Z,12.35
2022-12-19T17:31:28.564Z,13.02
2022-12-19T17:33:58.045Z,14.52
2022-12-19T17:36:34.659Z,15.02
2022-12-19T17:39:02.667Z,14.57
2022-12-19T17:41:30.570Z,12.80
2022-12-19T17:43:57.972Z,11.07
2022-12-19T17:46:25.764Z,13.30
2022-12-19T17:48:53.976Z,11.38
2022-12-19T17:51:22.913Z,14.38
2022-12-19T17:53:50.210Z,14.05
2022-12-19T17:56:20.558Z,13.00
2022-12-19T17:58:48.496Z,14.00
2022-12-19T18:01:19.299Z,12.15
2022-12-19T18:03:47.613Z,10.95
2022-12-19T18:06:15.684Z,11.82
2022-12-19T18:08:43.540Z,11.40
2022-12-19T18:11:26.273Z,11.38
2022-12-19T18:13:53.849Z,11.63
2022-12-19T18:16:26.220Z,11.20
2022-12-19T18:18:53.619Z,13.65
2022-12-19T18:21:25.540Z,13.27
2022-12-19T18:23:52.850Z,13.80
2022-12-19T18:26:20.040Z,9.48
2022-12-19T18:28:47.361Z,10.60
2022-12-19T18:31:25.660Z,10.20
2022-12-19T18:33:54.700Z,11.02
2022-12-19T18:36:30.151Z,10.27
2022-12-19T18:38:57.653Z,13.00
2022-12-19T18:41:26.517Z,10.80
2022-12-19T18:43:53.962Z,12.02
2022-12-19T18:46:27.241Z,9.68
2022-12-19T18:48:55.444Z,11.57
2022-12-19T18:51:23.321Z,10.70
2022-12-19T18:53:51.362Z,10.55
2022-12-19T18:56:18.780Z,10.48
2022-12-19T18:58:45.884Z,12.43
2022-12-19T19:01:19.175Z,10.45
2022-12-19T19:03:57.656Z,10.60
2022-12-19T19:06:28.102Z,11.52
2022-12-19T19:08:57.116Z,11.57
2022-12-19T19:11:25.155Z,11.98
2022-12-19T19:13:53.381Z,10.77
2022-12-19T19:16:25.903Z,12.00
2022-12-19T19:18:55.993Z,13.93
2022-12-19T19:21:34.835Z,12.45
2022-12-19T19:24:14.421Z,14.73
2022-12-19T19:26:41.526Z,12.82
2022-12-19T19:29:10.121Z,10.15
2022-12-19T19:31:40.954Z,12.10
2022-12-19T19:34:27.742Z,11.10
2022-12-19T19:36:57.731Z,11.35
2022-12-19T19:39:25.504Z,9.55
2022-12-19T19:41:53.733Z,10.93
2022-12-19T19:44:21.150Z,10.25
2022-12-19T19:46:48.868Z,12.63
2022-12-19T19:49:16.052Z,11.40
2022-12-19T19:51:43.328Z,8.80
2022-12-19T19:54:10.453Z,10.93
2022-12-19T19:56:37.609Z,11.13
2022-12-19T19:59:05.229Z,9.50
2022-12-19T20:01:32.356Z,11.68
2022-12-19T20:03:59.643Z,10.25
2022-12-19T20:06:26.985Z,9.90
2022-12-19T20:08:55.010Z,8.07
2022-12-19T20:11:22.402Z,10.25
2022-12-19T20:13:49.594Z,7.82
2022-12-19T20:16:18.460Z,9.15
2022-12-19T20:18:50.903Z,7.85
2022-12-19T20:21:19.964Z,9.85
2022-12-19T20:23:47.219Z,9.57
2022-12-19T20:26:16.726Z,9.07
2022-12-19T20:28:48.850Z,10.27
2022-12-19T20:31:22.404Z,9.40
2022-12-19T20:33:53.227Z,9.90
2022-12-19T20:36:20.767Z,7.70
2022-12-19T20:38:47.992Z,10.27
2022-12-19T20:41:16.352Z,9.70
2022-12-19T20:43:43.865Z,10.50
2022-12-19T20:46:14.428Z,8.60
2022-12-19T20:48:42.698Z,11.05
2022-12-19T20:51:10.380Z,9.25
2022-12-19T20:53:38.839Z,9.55
2022-12-19T20:56:08.028Z,7.57
2022-12-19T20:58:37.737Z,7.93
2022-12-19T21:01:13.576Z,9.30
2022-12-19T21:03:41.372Z,9.02
2022-12-19T21:06:10.681Z,8.23
2022-12-19T21:08:38.790Z,9.57
2022-12-19T21:11:07.617Z,9.00
2022-12-19T21:13:35.892Z,9.63
2022-12-19T21:16:07.244Z,7.10
2022-12-19T21:18:35.307Z,7.53
2022-12-19T21:21:04.360Z,8.73
2022-12-19T21:23:31.945Z,7.90
2022-12-19T21:26:01.274Z,13.65
2022-12-19T21:28:29.220Z,8.07
2022-12-19T21:31:25.349Z,8.23
2022-12-19T21:33:58.015Z,11.15
2022-12-19T21:36:26.109Z,11.32
2022-12-19T21:38:56.322Z,11.75
2022-12-19T21:41:23.944Z,10.48
2022-12-19T21:43:54.052Z,9.43
2022-12-19T21:46:24.686Z,10.23
2022-12-19T21:48:54.149Z,11.05
2022-12-19T21:51:23.648Z,9.07
2022-12-19T21:53:55.395Z,9.77
2022-12-19T21:56:28.113Z,16.73
2022-12-19T21:59:07.541Z,9.88
2022-12-19T22:01:34.756Z,10.45
2022-12-19T22:04:04.903Z,12.65
2022-12-19T22:06:33.580Z,8.75
2022-12-19T22:09:04.015Z,11.43
2022-12-19T22:11:31.586Z,11.05
2022-12-19T22:14:01.103Z,10.50
2022-12-19T22:16:29.324Z,9.93
2022-12-19T22:18:56.757Z,8.77
2022-12-19T22:21:24.433Z,10.43
2022-12-19T22:23:52.871Z,9.52
2022-12-19T22:26:23.848Z,9.77
2022-12-19T22:28:53.687Z,9.25
2022-12-19T22:31:41.001Z,10.48
2022-12-19T22:34:14.036Z,10.68
2022-12-19T22:36:42.531Z,9.85
2022-12-19T22:39:13.113Z,10.32
2022-12-19T22:41:41.661Z,10.25
2022-12-19T22:44:14.837Z,10.25
2022-12-19T22:46:41.927Z,9.15
2022-12-19T22:49:11.366Z,12.20
2022-12-19T22:51:38.844Z,10.23
2022-12-19T22:54:06.623Z,9.70
2022-12-19T22:56:34.785Z,10.93
2022-12-19T22:59:05.483Z,9.10
2022-12-19T23:01:38.647Z,10.13
2022-12-19T23:04:08.165Z,11.27
2022-12-19T23:06:37.403Z,10.07
2022-12-19T23:09:07.141Z,9.50
2022-12-19T23:11:36.609Z,10.85
2022-12-19T23:14:06.808Z,9.43
2022-12-19T23:16:34.305Z,8.25
2022-12-19T23:19:01.500Z,8.20
2022-12-19T23:21:28.683Z,8.50
2022-12-19T23:23:56.610Z,8.93
2022-12-19T23:26:35.435Z,10.45
2022-12-19T23:29:08.828Z,9.27
2022-12-19T23:31:39.042Z,9.20
2022-12-19T23:34:06.352Z,9.55
2022-12-19T23:39:20.547Z,8.13
2022-12-19T23:41:47.687Z,8.88
2022-12-19T23:44:15.487Z,9.23
2022-12-19T23:46:42.949Z,7.88
2022-12-19T23:49:10.480Z,8.52
2022-12-19T23:51:37.974Z,7.70
2022-12-19T23:54:05.316Z,10.50
2022-12-19T23:56:33.108Z,9.20
2022-12-19T23:59:00.506Z,9.60
